地図

経路データ

SID SEASON NUMBER BASIN SUBBASIN NAME ISO_TIME NATURE LAT LON WMO_WIND WMO_PRES WMO_AGENCY TRACK_TYPE DIST2LAND LANDFALL IFLAG USA_AGENCY USA_ATCF_ID USA_LAT USA_LON USA_RECORD USA_STATUS USA_WIND USA_PRES USA_SSHS USA_R34_NE USA_R34_SE USA_R34_SW USA_R34_NW USA_R50_NE USA_R50_SE USA_R50_SW USA_R50_NW USA_R64_NE USA_R64_SE USA_R64_SW USA_R64_NW USA_POCI USA_ROCI USA_RMW USA_EYE TOKYO_LAT TOKYO_LON TOKYO_GRADE TOKYO_WIND TOKYO_PRES TOKYO_R50_DIR TOKYO_R50_LONG TOKYO_R50_SHORT TOKYO_R30_DIR TOKYO_R30_LONG TOKYO_R30_SHORT TOKYO_LAND CMA_LAT CMA_LON CMA_CAT CMA_WIND CMA_PRES HKO_LAT HKO_LON HKO_CAT HKO_WIND HKO_PRES NEWDELHI_LAT NEWDELHI_LON NEWDELHI_GRADE NEWDELHI_WIND NEWDELHI_PRES NEWDELHI_CI NEWDELHI_DP NEWDELHI_POCI REUNION_LAT REUNION_LON REUNION_TYPE REUNION_WIND REUNION_PRES REUNION_TNUM REUNION_CI REUNION_RMW REUNION_R34_NE REUNION_R34_SE REUNION_R34_SW REUNION_R34_NW REUNION_R50_NE REUNION_R50_SE REUNION_R50_SW REUNION_R50_NW REUNION_R64_NE REUNION_R64_SE REUNION_R64_SW REUNION_R64_NW BOM_LAT BOM_LON BOM_TYPE BOM_WIND BOM_PRES BOM_TNUM BOM_CI BOM_RMW BOM_R34_NE BOM_R34_SE BOM_R34_SW BOM_R34_NW BOM_R50_NE BOM_R50_SE BOM_R50_SW BOM_R50_NW BOM_R64_NE BOM_R64_SE BOM_R64_SW BOM_R64_NW BOM_ROCI BOM_POCI BOM_EYE BOM_POS_METHOD BOM_PRES_METHOD NADI_LAT NADI_LON NADI_CAT NADI_WIND NADI_PRES WELLINGTON_LAT WELLINGTON_LON WELLINGTON_WIND WELLINGTON_PRES DS824_LAT DS824_LON DS824_STAGE DS824_WIND DS824_PRES TD9636_LAT TD9636_LON TD9636_STAGE TD9636_WIND TD9636_PRES TD9635_LAT TD9635_LON TD9635_WIND TD9635_PRES TD9635_ROCI NEUMANN_LAT NEUMANN_LON NEUMANN_CLASS NEUMANN_WIND NEUMANN_PRES MLC_LAT MLC_LON MLC_CLASS MLC_WIND MLC_PRES USA_GUST BOM_GUST BOM_GUST_PER REUNION_GUST REUNION_GUST_PER USA_SEAHGT USA_SEARAD_NE USA_SEARAD_SE USA_SEARAD_SW USA_SEARAD_NW STORM_SPEED STORM_DIR
1961325N08128 1961 121 WP MM NOT_NAMED 1961-11-20 18:00:00 NR 8.40000 127.800 main 153 108 ___O__________ -1 8.40000 127.800 TD 25 1008 13 305
1961325N08128 1961 121 WP MM NOT_NAMED 1961-11-20 21:00:00 NR 8.76529 127.280 main 109 65 ___P__________ -1 8.76529 127.280 TD 25 1008 13 309
1961325N08128 1961 121 WP MM NOT_NAMED 1961-11-21 00:00:00 NR 9.20000 126.800 main 65 45 ___O__________ -1 9.20000 126.800 TD 25 1008 13 317
1961325N08128 1961 121 WP MM NOT_NAMED 1961-11-21 03:00:00 NR 9.74209 126.360 main 49 47 ___P__________ -1 9.74209 126.360 TD 25 1008 15 323
1961325N08128 1961 121 WP MM NOT_NAMED 1961-11-21 06:00:00 TS 10.3600 125.900 main 66 21 __OO__________ -1 10.6000 126.300 1 29 1000 10.3000 125.800 TD 25 1008 16 314
1961325N08128 1961 121 WP MM NOT_NAMED 1961-11-21 09:00:00 TS 10.8388 125.197 main 21 0 __PP__________ -1 11.0002 125.790 1 29 1001 10.7581 124.900 TD 25 1008 16 305
1961325N08128 1961 121 WP MM NOT_NAMED 1961-11-21 12:00:00 TS 11.2857 124.557 main 0 0 __OO__________ -1 11.4000 125.300 1 29 1002 11.2000 124.000 TD 25 1008 14 311
1961325N08128 1961 121 WP MM NOT_NAMED 1961-11-21 15:00:00 TS 11.7535 124.130 main 10 0 __PP__________ -1 11.7999 124.842 1 29 1003 11.7071 123.417 TD 25 1008 12 317
1961325N08128 1961 121 WP MM NOT_NAMED 1961-11-21 18:00:00 TS 12.2000 123.700 main 0 0 __OO__________ -1 12.2000 124.400 1 29 1004 12.2000 123.000 TD 25 1008 12 315
1961325N08128 1961 121 WP MM NOT_NAMED 1961-11-21 21:00:00 TS 12.6112 123.266 main 11 11 __PP__________ -1 12.5849 123.950 1 29 1004 12.6375 122.582 TD 25 1008 11 316
1961325N08128 1961 121 WP MM NOT_NAMED 1961-11-22 00:00:00 TS 13.0000 122.900 main 31 0 __OO__________ -1 13.0000 123.500 1 29 1004 13.0000 122.300 TD 25 1008 10 320
1961325N08128 1961 121 WP MM NOT_NAMED 1961-11-22 03:00:00 TS 13.3900 122.605 main 0 0 __PP__________ -1 13.5076 123.013 1 29 1003 13.2724 122.197 TD 27 1006 9 327
1961325N08128 1961 121 WP MM NOT_NAMED 1961-11-22 06:00:00 TS 13.7500 122.400 main 0 0 __OO__________ -1 14.0000 122.600 1 29 1002 13.5000 122.200 TD 30 1005 7 335
1961325N08128 1961 121 WP MM NOT_NAMED 1961-11-22 09:00:00 TS 14.0649 122.281 main 0 0 __PP__________ -1 14.3798 122.362 1 29 1003 13.7500 122.200 TD 30 1003 6 342
1961325N08128 1961 121 WP MM NOT_NAMED 1961-11-22 12:00:00 TS 14.3500 122.200 main 31 22 __OO__________ -1 14.7000 122.200 1 29 1004 14.0000 122.200 TD 30 1002 6 339
1961325N08128 1961 121 WP MM NOT_NAMED 1961-11-22 15:00:00 TS 14.6288 122.060 main 44 31 __PP__________ -1 15.0075 121.963 1 29 1004 14.2500 122.158 TD 30 1003 7 337
1961325N08128 1961 121 WP MM NOT_NAMED 1961-11-22 18:00:00 TS 14.9571 121.929 main 39 39 __OO__________ -1 15.3000 121.800 1 29 1004 14.5000 122.100 TD 30 1004 7 345
1961325N08128 1961 121 WP MM NOT_NAMED 1961-11-22 21:00:00 TS 15.3216 121.871 main 48 32 __PP__________ -1 15.6074 121.782 1 29 1004 14.7500 122.048 TD 27 1005 8 359
1961325N08128 1961 121 WP MM NOT_NAMED 1961-11-23 00:00:00 TS 15.7200 121.920 main 32 0 __OO__________ -1 15.9000 121.900 1 29 1004 15.0000 122.000 TD 25 1006 9 15
1961325N08128 1961 121 WP MM NOT_NAMED 1961-11-23 03:00:00 TS 16.1725 122.112 main 0 0 __P___________ -1 16.1725 122.112 1 33 1003 TD 8 34
1961325N08128 1961 121 WP MM NOT_NAMED 1961-11-23 06:00:00 TS 16.4000 122.400 main 21 21 __O___________ -1 16.4000 122.400 2 38 1002 7 55
1961325N08128 1961 121 WP MM NOT_NAMED 1961-11-23 09:00:00 TS 16.5575 122.693 main 39 39 __P___________ -1 16.5575 122.693 2 38 1002 7 62
1961325N08128 1961 121 WP MM NOT_NAMED 1961-11-23 12:00:00 TS 16.7000 123.000 main 57 57 __O___________ -1 16.7000 123.000 2 38 1002 7 59
1961325N08128 1961 121 WP MM NOT_NAMED 1961-11-23 15:00:00 TS 16.8999 123.285 main 85 85 __P___________ -1 16.8999 123.285 2 38 1002 7 55
1961325N08128 1961 121 WP MM NOT_NAMED 1961-11-23 18:00:00 TS 17.1000 123.600 main 117 117 __O___________ -1 17.1000 123.600 2 38 1002 8 61
1961325N08128 1961 121 WP MM NOT_NAMED 1961-11-23 21:00:00 TS 17.2726 124.000 main 162 162 __P___________ -1 17.2726 124.000 2 38 1001 8 69
1961325N08128 1961 121 WP MM NOT_NAMED 1961-11-24 00:00:00 TS 17.4000 124.400 main 206 206 __O___________ -1 17.4000 124.400 2 38 1000 7 74
1961325N08128 1961 121 WP MM NOT_NAMED 1961-11-24 03:00:00 TS 17.4724 124.715 main 240 240 __P___________ -1 17.4724 124.715 2 38 999 6 80
1961325N08128 1961 121 WP MM NOT_NAMED 1961-11-24 06:00:00 TS 17.5000 125.000 main 271 271 __O___________ -1 17.5000 125.000 2 38 998 6 83
1961325N08128 1961 121 WP MM NOT_NAMED 1961-11-24 09:00:00 TS 17.5526 125.360 main 315 315 __P___________ -1 17.5526 125.360 2 38 998 6 90
1961325N08128 1961 121 WP MM NOT_NAMED 1961-11-24 12:00:00 TS 17.5000 125.600 main 333 331 __O___________ -1 17.5000 125.600 2 38 998 4 145
1961325N08128 1961 121 WP MM NOT_NAMED 1961-11-24 15:00:00 TS 17.2449 125.590 main 330 308 __P___________ -1 17.2449 125.590 2 38 999 6 198
1961325N08128 1961 121 WP MM NOT_NAMED 1961-11-24 18:00:00 TS 16.9000 125.400 main 308 278 __O___________ -1 16.9000 125.400 2 38 1000 8 216
1961325N08128 1961 121 WP MM NOT_NAMED 1961-11-24 21:00:00 TS 16.6301 125.123 main 278 254 __P___________ -1 16.6301 125.123 2 33 1003 8 224
1961325N08128 1961 121 WP MM NOT_NAMED 1961-11-25 00:00:00 TS 16.3000 124.800 main 254 213 __O___________ -1 16.3000 124.800 1 29 1006 10 216
1961325N08128 1961 121 WP MM NOT_NAMED 1961-11-25 03:00:00 TS 15.8525 124.527 main 213 145 __P___________ -1 15.8525 124.527 1 29 1008 11 206
1961325N08128 1961 121 WP MM NOT_NAMED 1961-11-25 06:00:00 TS 15.3000 124.300 main 145 78 __O___________ -1 15.3000 124.300 1 29 1010 13 198
1961325N08128 1961 121 WP MM NOT_NAMED 1961-11-25 09:00:00 TS 14.6700 124.132 main 78 10 __P___________ -1 14.6700 124.132 1 29 1011 13 193
1961325N08128 1961 121 WP MM NOT_NAMED 1961-11-25 12:00:00 TS 14.0000 124.000 main 10 __O___________ -1 14.0000 124.000 1 29 1012 14 191

デジタル台風データ・検索

IBTrACS Databaseについて

本データベースは、米国NOAAが公開する1842年以降の世界の熱帯低気圧のベストトラックデータアーカイブInternational Best Track Archive for Climate Stewardship (IBTrACS)を、ウェブで閲覧しやすい形式に変換したものです。

最終更新日:2021-12-01